Terminal Aerodrome Forecast
Issued by NWS

Home | Current Version | Previous Version | Text Only | Print | Product List | Glossary On
Versions: 1 2 3 4 5 6 7 8 9 10 11 12 13 14
000
FTUS45 KRIW 271100
TAFWRL
TAF
KWRL 271128Z 2712/2812 VRB04KT P6SM BCFG SCT003 SCT013
     FM271700 18006KT P6SM FEW015 SCT150
     FM272000 VRB05KT P6SM SCT070 BKN150=

USA.gov is the U.S. government's official web portal to all federal, state and local government web resources and services.